createdAt,value
2019-05-06T00:02:17.011Z,4.5
2019-05-06T00:07:17.105Z,4.5
2019-05-06T00:12:16.999Z,4.4
2019-05-06T00:17:17.829Z,4.4
2019-05-06T00:22:17.839Z,4.4
2019-05-06T00:27:17.764Z,4.3
2019-05-06T00:32:18.287Z,4.3
2019-05-06T00:37:18.301Z,4.2
2019-05-06T00:42:18.842Z,4.2
2019-05-06T00:47:19.602Z,4.2
2019-05-06T00:52:23.153Z,4.1
2019-05-06T00:57:20.583Z,4.1
2019-05-06T01:02:20.491Z,4
2019-05-06T01:07:20.518Z,3.9
2019-05-06T01:12:20.536Z,3.8
2019-05-06T01:17:21.549Z,3.8
2019-05-06T01:22:24.489Z,3.7
2019-05-06T01:27:24.029Z,3.7
2019-05-06T01:32:23.619Z,3.6
2019-05-06T01:37:23.967Z,3.5
2019-05-06T01:42:24.141Z,3.5
2019-05-06T01:47:55.528Z,3.4
2019-05-06T01:52:24.019Z,3.3
2019-05-06T01:57:24.384Z,3.2
2019-05-06T02:02:23.845Z,3.2
2019-05-06T02:07:25.183Z,3.2
2019-05-06T02:12:26.847Z,3.1
2019-05-06T02:17:26.830Z,3.1
2019-05-06T02:22:26.833Z,3
2019-05-06T02:27:26.813Z,3.1
2019-05-06T02:32:31.291Z,3.1
2019-05-06T02:37:29.084Z,3
2019-05-06T02:42:29.062Z,3
2019-05-06T02:48:04.382Z,3
2019-05-06T02:52:32.754Z,3
2019-05-06T02:57:33.073Z,2.9
2019-05-06T03:02:39.661Z,2.9
2019-05-06T03:07:32.783Z,2.9
2019-05-06T03:12:33.498Z,2.8
2019-05-06T03:17:32.818Z,2.8
2019-05-06T03:22:34.370Z,2.8
2019-05-06T03:27:33.616Z,2.7
2019-05-06T03:32:38.073Z,2.7
2019-05-06T03:37:33.677Z,2.7
2019-05-06T03:42:33.647Z,2.7
2019-05-06T03:48:28.737Z,2.6
2019-05-06T03:52:35.803Z,2.6
2019-05-06T03:57:37.163Z,2.6
2019-05-06T04:02:43.402Z,2.6
2019-05-06T04:07:45.809Z,2.6
2019-05-06T04:12:44.249Z,2.6
2019-05-06T04:17:46.913Z,2.6
2019-05-06T04:22:46.988Z,2.7
2019-05-06T04:27:50.071Z,2.7
2019-05-06T04:32:52.859Z,2.7
2019-05-06T04:37:50.087Z,2.7
2019-05-06T04:42:52.679Z,2.7
2019-05-06T04:47:53.665Z,2.7
2019-05-06T04:52:53.600Z,2.8
2019-05-06T04:57:53.559Z,2.8
2019-05-06T05:03:36.348Z,2.8
2019-05-06T05:07:54.337Z,2.9
2019-05-06T05:12:54.354Z,3
2019-05-06T05:17:54.382Z,3.1
2019-05-06T05:22:54.676Z,3.2
2019-05-06T05:27:54.874Z,3.3
2019-05-06T05:32:55.024Z,3.4
2019-05-06T05:37:54.917Z,3.5
2019-05-06T05:42:55.647Z,3.7
2019-05-06T05:47:55.544Z,3.8
2019-05-06T05:53:12.048Z,3.9
2019-05-06T05:58:13.901Z,4
2019-05-06T06:03:14.450Z,4.1
2019-05-06T06:08:15.051Z,4.2
2019-05-06T06:13:14.170Z,4.3
2019-05-06T06:18:16.514Z,4.4
2019-05-06T06:23:17.566Z,4.6
2019-05-06T06:28:18.736Z,4.7
2019-05-06T06:33:19.315Z,4.9
2019-05-06T06:38:17.633Z,5
2019-05-06T06:43:17.937Z,5.1
2019-05-06T06:48:18.741Z,5.2
2019-05-06T06:53:21.748Z,5.3
2019-05-06T06:58:22.709Z,5.4
2019-05-06T07:03:21.872Z,5.6
2019-05-06T07:08:33.726Z,5.6
2019-05-06T07:13:23.932Z,5.6
2019-05-06T07:18:28.938Z,5.7
2019-05-06T07:23:28.907Z,5.9
2019-05-06T07:28:28.902Z,6.1
2019-05-06T07:33:28.964Z,6.2
2019-05-06T07:38:33.770Z,6.5
2019-05-06T07:43:34.863Z,6.7
2019-05-06T07:48:40.184Z,6.7
2019-05-06T07:53:42.180Z,6.8
2019-05-06T07:58:40.186Z,7
2019-05-06T08:03:42.682Z,7.2
2019-05-06T08:08:43.236Z,7.3
2019-05-06T08:13:45.521Z,7.4
2019-05-06T08:18:45.620Z,7.4
2019-05-06T08:23:46.623Z,7.5
2019-05-06T08:28:47.136Z,7.6
2019-05-06T08:33:48.453Z,7.7
2019-05-06T08:38:48.421Z,7.7
2019-05-06T08:43:48.335Z,7.8
2019-05-06T08:48:48.317Z,7.9
2019-05-06T08:53:49.438Z,7.9
2019-05-06T08:58:49.457Z,8
2019-05-06T09:04:06.256Z,8.1
2019-05-06T09:08:52.116Z,8.4
2019-05-06T09:13:52.107Z,8.3
2019-05-06T09:18:53.081Z,8.3
2019-05-06T09:23:53.060Z,8.3
2019-05-06T09:28:53.077Z,8.3
2019-05-06T09:33:52.981Z,8.2
2019-05-06T09:38:52.986Z,8.2
2019-05-06T09:43:52.639Z,8.3
2019-05-06T09:48:52.730Z,8.8
2019-05-06T09:53:53.054Z,9
2019-05-06T09:58:52.739Z,9.3
2019-05-06T10:03:52.795Z,9.2
2019-05-06T10:08:51.868Z,9.2
2019-05-06T10:13:52.931Z,9.1
2019-05-06T10:18:53.384Z,9.2
2019-05-06T10:23:53.327Z,9.3
2019-05-06T10:28:53.310Z,9.6
2019-05-06T10:33:54.334Z,9.7
2019-05-06T10:38:53.443Z,9.7
2019-05-06T10:43:54.806Z,9.6
2019-05-06T10:48:54.766Z,9.3
2019-05-06T10:53:54.895Z,9.3
2019-05-06T10:59:03.319Z,9.3
2019-05-06T11:03:55.244Z,9.6
2019-05-06T11:08:54.725Z,10.1
2019-05-06T11:13:54.709Z,10.2
2019-05-06T11:18:54.748Z,10.4
2019-05-06T11:24:13.095Z,10.3
2019-05-06T11:29:16.426Z,10.4
2019-05-06T11:34:16.497Z,10
2019-05-06T11:39:16.539Z,9.8
2019-05-06T11:44:23.532Z,9.8
2019-05-06T11:50:06.525Z,9.8
2019-05-06T11:55:27.043Z,9.8
2019-05-06T12:00:17.855Z,9.8
2019-05-06T12:05:52.860Z,9.7
2019-05-06T12:10:56.019Z,9.7
2019-05-06T12:16:04.390Z,9.8
2019-05-06T12:21:11.084Z,9.6
2019-05-06T12:26:15.868Z,9.6
2019-05-06T12:31:16.723Z,9.8
2019-05-06T12:36:17.977Z,9.9
2019-05-06T12:41:17.961Z,10
2019-05-06T12:46:23.039Z,10
2019-05-06T12:51:23.915Z,9.8
2019-05-06T12:56:39.206Z,9.9
2019-05-06T13:01:53.969Z,9.9
2019-05-06T13:06:52.328Z,10
2019-05-06T13:11:53.120Z,9.9
2019-05-06T13:16:53.682Z,9.9
2019-05-06T13:21:54.910Z,9.8
2019-05-06T13:27:02.472Z,9.8
2019-05-06T13:32:02.536Z,9.6
2019-05-06T13:37:02.604Z,9.5
2019-05-06T13:42:03.367Z,9.6
2019-05-06T13:48:28.813Z,9.6
2019-05-06T13:53:39.468Z,9.6
2019-05-06T13:58:37.229Z,9.7
2019-05-06T14:03:37.934Z,9.8
2019-05-06T14:08:48.108Z,9.8
2019-05-06T14:13:48.838Z,10
2019-05-06T14:18:49.552Z,10.2
2019-05-06T14:23:49.471Z,10.2
2019-05-06T14:28:49.623Z,10.4
2019-05-06T14:33:52.195Z,10.5
2019-05-06T14:38:54.375Z,10.6
2019-05-06T14:43:54.784Z,10.6
2019-05-06T14:48:56.507Z,10.7
2019-05-06T14:53:59.023Z,10.8
2019-05-06T14:59:07.908Z,11
2019-05-06T15:04:07.752Z,10.9
2019-05-06T15:09:32.710Z,10.9
2019-05-06T15:14:33.890Z,11.1
2019-05-06T15:19:49.282Z,11.1
2019-05-06T15:24:53.517Z,10.9
2019-05-06T15:29:54.259Z,10.8
2019-05-06T15:34:56.118Z,10.8
2019-05-06T15:39:55.071Z,10.8
2019-05-06T15:44:55.816Z,11
2019-05-06T15:49:56.754Z,11.1
2019-05-06T15:54:56.739Z,11.1
2019-05-06T15:59:58.426Z,11
2019-05-06T16:05:06.525Z,11
2019-05-06T16:10:07.252Z,10.9
2019-05-06T16:15:25.118Z,11
2019-05-06T16:20:38.912Z,10.9
2019-05-06T16:25:42.288Z,10.9
2019-05-06T16:30:42.625Z,10.8
2019-05-06T16:35:42.805Z,10.7
2019-05-06T16:40:45.328Z,10.6
2019-05-06T16:45:45.293Z,10.6
2019-05-06T16:50:48.435Z,10.4
2019-05-06T16:55:59.111Z,9.9
2019-05-06T17:01:00.266Z,9.5
2019-05-06T17:06:14.152Z,9.3
2019-05-06T17:11:29.852Z,9.2
2019-05-06T17:16:26.475Z,9.2
2019-05-06T17:21:28.233Z,8.9
2019-05-06T17:26:33.802Z,8.7
2019-05-06T17:32:02.490Z,8.7
2019-05-06T17:37:12.450Z,8.6
2019-05-06T17:42:22.524Z,8.6
2019-05-06T17:47:20.212Z,8.6
2019-05-06T17:52:22.293Z,8.6
2019-05-06T17:57:22.343Z,8.5
2019-05-06T18:02:22.652Z,8.5
2019-05-06T18:07:22.262Z,8.4
2019-05-06T18:12:27.940Z,8.4
2019-05-06T18:17:28.102Z,8.3
2019-05-06T18:22:29.155Z,8.3
2019-05-06T18:28:09.096Z,8.2
2019-05-06T18:33:29.437Z,8.1
2019-05-06T18:38:35.744Z,8
2019-05-06T18:43:33.123Z,7.9
2019-05-06T18:48:34.988Z,7.9
2019-05-06T18:53:33.042Z,7.8
2019-05-06T18:58:37.621Z,7.7
2019-05-06T19:03:40.511Z,7.7
2019-05-06T19:08:43.266Z,7.7
2019-05-06T19:13:52.806Z,7.6
2019-05-06T19:18:54.427Z,7.6
2019-05-06T19:23:55.036Z,7.6
2019-05-06T19:28:57.702Z,7.5
2019-05-06T19:33:59.214Z,7.5
2019-05-06T19:39:04.704Z,7.4
2019-05-06T19:44:09.878Z,7.4
2019-05-06T19:49:23.843Z,7.4
2019-05-06T20:10:12.318Z,7.2
2019-05-06T20:15:10.901Z,7.1
2019-05-06T20:20:12.502Z,7.1
2019-05-06T20:25:14.506Z,7
2019-05-06T20:30:32.878Z,7
2019-05-06T20:35:36.629Z,6.9
2019-05-06T20:40:38.487Z,6.9
2019-05-06T20:45:38.843Z,6.9
2019-05-06T20:50:38.613Z,6.8
2019-05-06T20:55:39.281Z,6.8
2019-05-06T21:00:38.622Z,6.8
2019-05-06T21:05:38.668Z,6.8
2019-05-06T21:10:38.605Z,6.8
2019-05-06T21:15:39.022Z,6.7
2019-05-06T21:20:38.929Z,6.8
2019-05-06T21:25:38.943Z,6.7
2019-05-06T21:30:38.908Z,6.7
2019-05-06T21:35:38.929Z,6.7
2019-05-06T21:40:39.518Z,6.7
2019-05-06T21:45:39.543Z,6.6
2019-05-06T21:50:39.542Z,6.6
2019-05-06T21:55:39.567Z,6.6
2019-05-06T22:00:39.836Z,6.6
2019-05-06T22:05:39.983Z,6.5
2019-05-06T22:10:41.896Z,6.5
2019-05-06T22:15:41.853Z,6.5
2019-05-06T22:20:39.786Z,6.5
2019-05-06T22:25:39.811Z,6.5
2019-05-06T22:30:42.387Z,6.5
2019-05-06T22:35:39.799Z,6.4
2019-05-06T22:40:42.348Z,6.4
2019-05-06T22:45:42.362Z,6.4
2019-05-06T22:50:42.253Z,6.4
2019-05-06T22:55:42.592Z,6.3
2019-05-06T23:00:42.361Z,6.3
2019-05-06T23:05:42.402Z,6.3
2019-05-06T23:10:42.237Z,6.3
2019-05-06T23:15:42.036Z,6.2
2019-05-06T23:20:42.896Z,6.2
2019-05-06T23:25:43.256Z,6.1
2019-05-06T23:30:42.861Z,6.1
2019-05-06T23:35:43.890Z,6.1
2019-05-06T23:40:43.085Z,6
2019-05-06T23:45:44.289Z,6
2019-05-06T23:50:42.784Z,6
2019-05-06T23:55:44.085Z,6
